Data for 03/16/2009

Time Sea-Level Adjusted Pressure Absolute Pressure Temperature Relative Humidity Dew Point   
(mb) (inHg) (mb) (inHg) (C) (F) (%) (C) (F)
00:05 1005 29.68 834 24.63 7.3 45.1 44 -4.2 24.5
00:10 1005 29.68 834 24.63 7.2 45 44 -4.3 24.3
00:15 1005 29.68 835 24.66 7 44.6 45 -4 24.9
00:20 1005 29.68 835 24.66 7.1 44.8 44 -4.3 24.2
00:25 1005 29.68 835 24.66 7.1 44.8 47 -3.5 25.8
00:30 1005 29.68 835 24.66 6.7 44 45 -4.4 24.2
00:35 1005 29.68 835 24.66 7.2 45 46 -3.7 25.4
00:40 1005 29.68 835 24.66 7.1 44.8 44 -4.2 24.5
00:45 1005 29.68 835 24.66 7.3 45.1 44 -4.2 24.5
00:50 1005 29.68 835 24.66 7 44.6 47 -3.6 25.6
00:55 1005 29.68 835 24.66 7 44.6 47 -3.5 25.8
01:00 1005 29.68 835 24.66 6.7 44.1 49 -3.2 26.2
01:05 1005 29.68 834 24.63 6.7 44.1 47 -3.7 25.4
01:10 1005 29.68 834 24.63 6.9 44.4 46 -3.9 25
01:15 1005 29.68 835 24.66 7.1 44.8 45 -3.9 25
01:20 1005 29.68 834 24.63 7.1 44.9 47 -3.5 25.8
01:25 1005 29.68 834 24.63 7.1 44.8 46 -3.6 25.4
01:30 1005 29.68 834 24.63 7.1 44.8 44 -4.2 24.5
01:35 1005 29.68 834 24.63 7.4 45.3 46 -3.4 26
01:40 1005 29.68 834 24.63 6.9 44.5 47 -3.5 25.8
01:45 1005 29.68 834 24.63 7.1 44.7 48 -3.1 26.5
01:50 1005 29.68 834 24.63 6.9 44.5 49 -3 26.5
01:55 1005 29.68 835 24.66 7 44.7 47 -3.6 25.6
02:00 1005 29.68 835 24.66 7.2 44.9 48 -3.1 26.3
02:05 1005 29.68 835 24.66 7.1 44.7 47 -3.4 25.9
02:10 1006 29.71 835 24.66 7.1 44.8 47 -3.3 26.1
02:15 1006 29.71 835 24.66 7.1 44.8 49 -3 26.6
02:20 1006 29.71 835 24.66 6.9 44.4 49 -3 26.5
02:25 1006 29.71 835 24.66 6.9 44.5 49 -3.2 26.3
02:30 1006 29.71 835 24.66 7 44.6 47 -3.5 25.7
02:35 1006 29.71 835 24.66 7.3 45.1 45 -4 24.8
02:40 1006 29.71 835 24.66 7.6 45.7 42 -4.4 24.1
02:45 1006 29.71 836 24.69 7.8 46 43 -3.9 25
02:50 1007 29.74 836 24.69 7.5 45.5 45 -3.7 25.3
02:55 1007 29.74 836 24.69 7.4 45.2 45 -3.8 25.2
03:00 1007 29.74 836 24.69 7.3 45.1 45 -3.7 25.3
03:05 1007 29.74 836 24.69 7.2 44.9 46 -3.5 25.6
03:10 1007 29.74 836 24.69 7 44.5 47 -3.4 25.8
03:15 1007 29.74 836 24.69 7.1 44.8 45 -4.1 24.7
03:20 1007 29.74 836 24.69 7.4 45.2 44 -4.1 24.7
03:25 1007 29.74 836 24.69 7.6 45.7 43 -4.3 24.3
03:30 1007 29.74 837 24.72 7.8 46.1 44 -3.5 25.6
03:35 1007 29.74 837 24.72 7.5 45.5 47 -3.1 26.5
03:40 1008 29.77 837 24.72 7.2 44.9 49 -2.9 26.8
03:45 1008 29.77 837 24.72 7 44.5 49 -3 26.7
03:50 1008 29.77 837 24.72 7 44.6 48 -3.2 26.2
03:55 1008 29.77 837 24.72 7 44.6 48 -3.2 26.2
04:00 1008 29.77 837 24.72 7 44.7 48 -3.3 26.1
04:05 1008 29.77 837 24.72 7 44.5 47 -3.4 25.8
04:10 1008 29.77 837 24.72 6.9 44.5 48 -3.2 26.2
04:15 1008 29.77 837 24.72 6.9 44.5 48 -3.4 25.8
04:20 1008 29.77 837 24.72 7 44.5 48 -3.3 26.1
04:25 1008 29.77 837 24.72 6.7 44.1 50 -3 26.6
04:30 1008 29.77 837 24.72 6.5 43.6 50 -3.2 26.2
04:35 1008 29.77 837 24.72 6.4 43.6 50 -3.2 26.2
04:40 1008 29.77 838 24.75 6.4 43.6 54 -2.3 27.9
04:45 1009 29.8 838 24.75 5.6 42.1 59 -1.8 28.7
04:50 1009 29.8 838 24.75 5.1 41.1 61 -1.7 28.9
04:55 1009 29.8 838 24.75 4.5 40.1 65 -1.6 29.2
05:00 1009 29.8 838 24.75 4.1 39.3 67 -1.6 29.2
05:05 1009 29.8 838 24.75 3.8 38.9 68 -1.5 29.3
05:10 1009 29.8 838 24.75 3.6 38.5 69 -1.5 29.2
05:15 1009 29.8 838 24.75 3.4 38.2 70 -1.4 29.4
05:20 1009 29.8 838 24.75 3.3 37.9 71 -1.4 29.4
05:25 1009 29.8 838 24.75 3.1 37.7 72 -1.4 29.4
05:30 1009 29.8 838 24.75 3.1 37.6 73 -1.3 29.7
05:35 1009 29.8 839 24.78 2.9 37.3 74 -1.2 29.8
05:40 1010 29.83 839 24.78 2.7 36.9 76 -1.1 30
05:45 1010 29.83 839 24.78 2.2 36 80 -0.9 30.4
05:50 1010 29.83 839 24.78 1.9 35.4 81 -1.1 30
05:55 1010 29.83 839 24.78 1.9 35.4 80 -1.2 29.8
06:00 1010 29.83 839 24.78 2 35.6 79 -1.3 29.6
06:05 1010 29.83 839 24.78 2.2 36 77 -1.3 29.6
06:10 1010 29.83 839 24.78 2.4 36.3 77 -1.3 29.7
06:15 1010 29.83 839 24.78 2.5 36.5 76 -1.3 29.6
06:20 1010 29.83 839 24.78 2.5 36.5 76 -1.2 29.8
06:25 1010 29.83 840 24.81 2.2 36 78 -1.3 29.7
06:30 1010 29.83 840 24.81 2.2 36 77 -1.4 29.5
06:35 1011 29.85 840 24.81 2.2 35.9 78 -1.2 29.8
06:40 1011 29.85 840 24.81 2 35.5 78 -1.4 29.4
06:45 1011 29.85 840 24.81 1.9 35.5 79 -1.3 29.6
06:50 1011 29.85 840 24.81 2 35.5 78 -1.5 29.3
06:55 1011 29.85 840 24.81 2 35.5 79 -1.2 29.8
07:00 1011 29.85 840 24.81 1.7 35.1 80 -1.3 29.7
07:05 1011 29.85 840 24.81 1.5 34.8 82 -1.2 29.8
07:10 1011 29.85 840 24.81 1.5 34.6 81 -1.4 29.5
07:15 1011 29.85 840 24.81 1.5 34.8 80 -1.5 29.4
07:20 1011 29.85 840 24.81 1.6 35 80 -1.5 29.4
07:25 1011 29.85 840 24.81 1.7 35.1 79 -1.5 29.2
07:30 1011 29.85 840 24.81 1.9 35.4 78 -1.6 29.1
07:35 1011 29.85 840 24.81 1.9 35.4 79 -1.4 29.5
07:40 1011 29.85 840 24.81 1.6 34.8 81 -1.4 29.4
07:45 1011 29.85 840 24.81 1.5 34.6 80 -1.7 29
07:50 1011 29.85 840 24.81 1.5 34.7 80 -1.5 29.2
07:55 1011 29.85 840 24.81 1.3 34.3 81 -1.7 29
08:00 1011 29.85 840 24.81 1.2 34.2 81 -1.6 29.1
08:05 1011 29.85 840 24.81 1.3 34.4 81 -1.7 29
08:10 1011 29.85 840 24.81 1.5 34.6 80 -1.6 29
08:15 1011 29.85 840 24.81 1.5 34.7 80 -1.6 29.2
08:20 1011 29.85 840 24.81 1.3 34.4 82 -1.5 29.4
08:25 1011 29.85 841 24.83 1.1 34.1 83 -1.5 29.3
08:30 1011 29.85 841 24.83 1.1 34 83 -1.4 29.5
08:35 1011 29.85 841 24.83 0.9 33.6 84 -1.4 29.4
08:40 1011 29.85 841 24.83 0.7 33.3 86 -1.3 29.6
08:45 1011 29.85 841 24.83 0.7 33.3 86 -1.4 29.6
08:50 1011 29.85 841 24.83 0.8 33.4 86 -1.3 29.7
08:55 1011 29.85 841 24.83 0.8 33.5 86 -1.3 29.7
09:00 1011 29.85 841 24.83 0.8 33.4 86 -1.2 29.8
09:05 1012 29.88 841 24.83 1.1 33.9 85 -1.2 29.8
09:10 1012 29.88 841 24.83 1.1 33.9 84 -1.4 29.6
09:15 1011 29.85 841 24.83 1.3 34.3 85 -1 30.2
09:20 1011 29.85 841 24.83 1 33.8 85 -1.3 29.7
09:25 1011 29.85 841 24.83 1 33.7 84 -1.4 29.5
09:30 1011 29.85 841 24.83 1.2 34.2 83 -1.4 29.5
09:35 1011 29.85 841 24.83 1.3 34.4 82 -1.4 29.5
09:40 1011 29.85 841 24.83 2 35.5 79 -1.3 29.6
09:45 1012 29.88 841 24.83 2.2 36 78 -1.3 29.7
09:50 1011 29.85 841 24.83 2.6 36.7 76 -1.2 29.8
09:55 1012 29.88 841 24.83 2.9 37.2 75 -1.1 30
10:00 1012 29.88 841 24.83 3 37.3 74 -1.2 29.8
10:05 1012 29.88 841 24.83 3.1 37.6 74 -1.1 30
10:10 1012 29.88 841 24.83 3.5 38.3 71 -1.3 29.7
10:15 1012 29.88 841 24.83 3.7 38.6 72 -1 30.3
10:20 1012 29.88 841 24.83 3.3 37.9 74 -0.9 30.3
10:25 1012 29.88 841 24.83 3.5 38.4 72 -1.1 30.1
10:30 1012 29.88 841 24.83 3.6 38.5 72 -1 30.1
10:35 1012 29.88 841 24.83 3.5 38.3 72 -1 30.2
10:40 1012 29.88 841 24.83 3.7 38.6 73 -0.7 30.7
10:45 1012 29.88 841 24.83 3.4 38.1 73 -0.9 30.3
10:50 1011 29.85 841 24.83 3.6 38.4 74 -0.7 30.7
10:55 1011 29.85 841 24.83 4.2 39.5 68 -1.2 29.9
11:00 1011 29.85 841 24.83 4.1 39.3 72 -0.6 31
11:05 1011 29.85 841 24.83 4.9 40.7 66 -0.9 30.3
11:10 1011 29.85 840 24.81 5.1 41.2 65 -0.8 30.5
11:15 1011 29.85 840 24.81 5.5 41.9 64 -0.9 30.4
11:20 1011 29.85 840 24.81 4.9 40.8 68 -0.6 31
11:25 1011 29.85 840 24.81 4.5 40 68 -0.8 30.5
11:30 1011 29.85 840 24.81 4.2 39.6 71 -0.5 31.1
11:35 1011 29.85 840 24.81 4.5 40.2 69 -0.7 30.8
11:40 1011 29.85 840 24.81 4.4 39.9 69 -0.9 30.4
11:45 1011 29.85 840 24.81 4.3 39.8 72 -0.4 31.3
11:50 1011 29.85 840 24.81 4.2 39.5 72 -0.5 31.1
11:55 1011 29.85 840 24.81 4.5 40.1 68 -0.9 30.3
12:00 1011 29.85 840 24.81 5 41 69 -0.3 31.5
12:05 1010 29.83 840 24.81 4.6 40.3 72 -0.1 31.9
12:10 1010 29.83 840 24.81 4.1 39.4 71 -0.7 30.8
12:15 1010 29.83 840 24.81 5 40.9 68 -0.4 31.4
12:20 1010 29.83 839 24.78 5.7 42.3 63 -0.8 30.5
12:25 1010 29.83 840 24.81 5.3 41.6 65 -0.6 30.9
12:30 1010 29.83 839 24.78 5.1 41.2 68 -0.4 31.3
12:35 1010 29.83 839 24.78 4.8 40.7 67 -0.7 30.8
12:40 1010 29.83 839 24.78 5.1 41.2 67 -0.4 31.3
12:45 1010 29.83 839 24.78 5.1 41.2 66 -0.7 30.8
12:50 1010 29.83 839 24.78 5.7 42.2 65 -0.5 31.2
12:55 1010 29.83 839 24.78 5.7 42.3 66 -0.1 31.8
13:00 1010 29.83 839 24.78 5.7 42.2 65 -0.3 31.5
13:05 1010 29.83 839 24.78 5.7 42.3 65 -0.4 31.3
13:10 1010 29.83 839 24.78 5.4 41.7 66 -0.5 31.1
13:15 1010 29.83 839 24.78 5.2 41.4 62 -1.3 29.6
13:20 1010 29.83 839 24.78 5.5 41.9 62 -1.2 29.9
13:25 1010 29.83 839 24.78 5.7 42.3 63 -0.9 30.5
13:30 1010 29.83 839 24.78 5.8 42.4 63 -0.7 30.7
13:35 1010 29.83 839 24.78 5.8 42.4 63 -0.7 30.7
13:40 1010 29.83 839 24.78 5.9 42.6 63 -0.7 30.8
13:45 1010 29.83 839 24.78 6.3 43.3 61 -0.6 30.9
13:50 1010 29.83 839 24.78 6.3 43.3 62 -0.5 31.2
13:55 1010 29.83 839 24.78 6.4 43.6 61 -0.6 31
14:00 1010 29.83 839 24.78 6.5 43.7 60 -0.6 30.9
14:05 1009 29.8 839 24.78 6.9 44.3 57 -1 30.2
14:10 1009 29.8 839 24.78 7.2 45 58 -0.6 31
14:15 1009 29.8 838 24.75 7.3 45.1 61 0.3 32.5
14:20 1009 29.8 838 24.75 6.5 43.6 61 -0.6 31
14:25 1009 29.8 838 24.75 7.2 44.9 58 -0.6 30.9
14:30 1009 29.8 839 24.78 7.5 45.5 58 -0.1 31.8
14:35 1009 29.8 839 24.78 8.5 47.2 56 0.2 32.3
14:40 1009 29.8 839 24.78 7.7 45.9 64 1.3 34.3
14:45 1010 29.83 839 24.78 5.8 42.5 70 0.8 33.5
14:50 1009 29.8 839 24.78 5.4 41.7 70 0.4 32.8
14:55 1010 29.83 839 24.78 5.3 41.6 69 0.1 32.3
15:00 1010 29.83 839 24.78 5.1 41.2 70 0 32
15:05 1010 29.83 839 24.78 4.4 39.9 74 0.1 32.2
15:10 1010 29.83 839 24.78 3.7 38.7 75 -0.3 31.5
15:15 1010 29.83 840 24.81 3.4 38.2 77 -0.2 31.7
15:20 1011 29.85 840 24.81 3 37.5 79 -0.3 31.4
15:25 1011 29.85 840 24.81 2.7 36.8 81 -0.3 31.4
15:30 1011 29.85 840 24.81 2.4 36.3 84 -0.1 31.8
15:35 1011 29.85 840 24.81 2 35.6 85 -0.2 31.6
15:40 1011 29.85 840 24.81 1.3 34.3 88 -0.4 31.2
15:45 1012 29.88 841 24.83 0.8 33.4 91 -0.5 31
15:50 1012 29.88 842 24.86 0.2 32.4 92 -0.9 30.4
15:55 1012 29.88 842 24.86 -0.1 31.9 93 -1 30.2
16:00 1013 29.91 842 24.86 -0.4 31.4 94 -1.2 29.8
16:05 1013 29.91 842 24.86 -0.6 30.9 95 -1.4 29.5
16:10 1013 29.91 842 24.86 -0.9 30.5 95 -1.5 29.3
16:15 1013 29.91 842 24.86 -1 30.2 96 -1.6 29.2
16:20 1013 29.91 842 24.86 -1 30.2 96 -1.6 29.2
16:25 1013 29.91 843 24.89 -1 30.2 97 -1.5 29.3
16:30 1013 29.91 843 24.89 -0.9 30.3 96 -1.5 29.4
16:35 1014 29.94 843 24.89 -1 30.3 96 -1.5 29.2
16:40 1014 29.94 843 24.89 -1.1 30.1 96 -1.6 29.1
16:45 1014 29.94 843 24.89 -1.1 30.1 96 -1.7 28.9
16:50 1014 29.94 843 24.89 -1.1 29.9 96 -1.6 29.1
16:55 1014 29.94 843 24.89 -1.1 30 96 -1.7 28.9
17:00 1014 29.94 843 24.89 -1.3 29.7 96 -1.9 28.7
17:05 1014 29.94 844 24.92 -1.5 29.3 97 -2 28.4
17:10 1015 29.97 844 24.92 -1.5 29.3 97 -1.9 28.5
17:15 1014 29.94 844 24.92 -1.2 29.8 98 -1.5 29.2
17:20 1014 29.94 843 24.89 -0.9 30.5 96 -1.5 29.3
17:25 1014 29.94 843 24.89 -1.1 30 97 -1.6 29.2
17:30 1014 29.94 843 24.89 -0.9 30.4 97 -1.3 29.6
17:35 1014 29.94 843 24.89 -0.8 30.6 96 -1.4 29.5
17:40 1014 29.94 843 24.89 -1 30.2 95 -1.7 29
17:45 1014 29.94 843 24.89 -1.2 29.8 97 -1.6 29.1
17:50 1014 29.94 843 24.89 -0.9 30.4 96 -1.4 29.4
17:55 1015 29.97 844 24.92 -0.8 30.6 96 -1.3 29.6
18:00 1014 29.94 843 24.89 -0.8 30.6 96 -1.4 29.6
18:05 1014 29.94 843 24.89 -0.8 30.6 96 -1.3 29.7
18:10 1014 29.94 843 24.89 -0.8 30.6 96 -1.3 29.6
18:15 1015 29.97 844 24.92 -0.8 30.5 96 -1.4 29.5
18:20 1014 29.94 843 24.89 -0.9 30.5 97 -1.3 29.6
18:25 1015 29.97 844 24.92 -0.8 30.6 96 -1.3 29.7
18:30 1015 29.97 844 24.92 -0.8 30.5 97 -1.3 29.7
18:35 1015 29.97 845 24.95 -0.9 30.4 97 -1.4 29.6
18:40 1016 30 845 24.95 -0.9 30.4 97 -1.4 29.5
18:45 1016 30 845 24.95 -1 30.2 97 -1.4 29.5
18:50 1016 30 845 24.95 -1 30.3 97 -1.3 29.6
18:55 1016 30 845 24.95 -0.9 30.4 97 -1.3 29.7
19:00 1016 30 845 24.95 -0.9 30.4 96 -1.4 29.4
19:05 1016 30 845 24.95 -1.1 30 97 -1.6 29.1
19:10 1016 30 845 24.95 -1.3 29.6 97 -1.8 28.8
19:15 1016 30 845 24.95 -1.5 29.3 98 -1.8 28.7
19:20 1016 30 845 24.95 -1.6 29.1 98 -1.9 28.5
19:25 1016 30 845 24.95 -1.5 29.3 98 -1.8 28.8
19:30 1016 30 845 24.95 -1.4 29.4 98 -1.8 28.8
19:35 1016 30 845 24.95 -1.4 29.4 97 -1.8 28.8
19:40 1016 30 845 24.95 -1.5 29.3 97 -1.9 28.6
19:45 1016 30 845 24.95 -1.5 29.3 97 -1.8 28.7
19:50 1016 30 846 24.98 -1.4 29.5 97 -1.8 28.8
19:55 1016 30 846 24.98 -1.3 29.6 97 -1.7 29
20:00 1016 30 845 24.95 -1.2 29.8 97 -1.7 29
20:05 1016 30 845 24.95 -1.2 29.8 97 -1.6 29
20:10 1016 30 845 24.95 -1.2 29.8 96 -1.8 28.8
20:15 1016 30 845 24.95 -1.3 29.7 97 -1.8 28.8
20:20 1016 30 846 24.98 -1.3 29.6 97 -1.8 28.8
20:25 1016 30 846 24.98 -1.4 29.5 96 -1.9 28.6
20:30 1016 30 846 24.98 -1.6 29.2 96 -2.1 28.2
20:35 1017 30.03 846 24.98 -1.7 29 97 -2.1 28.3
20:40 1017 30.03 846 24.98 -1.5 29.2 97 -1.9 28.5
20:45 1017 30.03 846 24.98 -1.4 29.4 97 -1.9 28.6
20:50 1017 30.03 846 24.98 -1.4 29.4 96 -2 28.4
20:55 1017 30.03 846 24.98 -1.6 29.1 96 -2.1 28.2
21:00 1017 30.03 846 24.98 -1.7 28.9 97 -2.2 28.1
21:05 1017 30.03 846 24.98 -1.7 29 97 -2.1 28.1
21:10 1017 30.03 846 24.98 -1.5 29.3 96 -2.1 28.2
21:15 1017 30.03 846 24.98 -1.6 29.1 97 -2.1 28.3
21:20 1017 30.03 846 24.98 -1.6 29.1 96 -2.1 28.2
21:25 1017 30.03 846 24.98 -1.6 29.2 96 -2.1 28.3
21:30 1017 30.03 846 24.98 -1.4 29.4 96 -2.1 28.3
21:35 1017 30.03 846 24.98 -1.2 29.8 94 -2 28.4
21:40 1017 30.03 847 25.01 -1.1 30.1 93 -2 28.3
21:45 1017 30.03 847 25.01 -1.1 30 93 -2 28.3
21:50 1017 30.03 847 25.01 -1.1 30.1 94 -2 28.5
21:55 1017 30.03 847 25.01 -1.2 29.9 94 -2 28.4
22:00 1017 30.03 847 25.01 -1.2 29.9 93 -2.2 28
22:05 1017 30.03 846 24.98 -1.3 29.6 94 -2.1 28.2
22:10 1017 30.03 847 25.01 -1.3 29.7 93 -2.3 27.9
22:15 1017 30.03 847 25.01 -1.3 29.7 93 -2.3 27.8
22:20 1017 30.03 846 24.98 -1.4 29.5 93 -2.4 27.8
22:25 1018 30.06 847 25.01 -1.2 29.8 92 -2.3 27.8
22:30 1017 30.03 847 25.01 -1.3 29.7 93 -2.3 27.9
22:35 1017 30.03 847 25.01 -1.3 29.6 93 -2.3 27.9
22:40 1017 30.03 847 25.01 -1.3 29.6 93 -2.3 27.8
22:45 1017 30.03 847 25.01 -1.3 29.7 93 -2.3 27.8
22:50 1017 30.03 847 25.01 -1.3 29.7 93 -2.3 27.9
22:55 1017 30.03 846 24.98 -1.3 29.7 92 -2.3 27.8
23:00 1017 30.03 846 24.98 -1.2 29.8 92 -2.3 27.8
23:05 1017 30.03 846 24.98 -1.3 29.7 92 -2.5 27.5
23:10 1017 30.03 846 24.98 -1.3 29.7 92 -2.4 27.7
23:15 1017 30.03 846 24.98 -1.4 29.5 93 -2.4 27.6
23:20 1017 30.03 846 24.98 -1.3 29.6 91 -2.6 27.4
23:25 1017 30.03 846 24.98 -1.1 30.1 88 -2.8 26.9
23:30 1017 30.03 846 24.98 -0.9 30.3 89 -2.5 27.5
23:35 1017 30.03 846 24.98 -1 30.1 90 -2.4 27.6
23:40 1017 30.03 846 24.98 -1 30.2 91 -2.3 27.8
23:45 1017 30.03 846 24.98 -1.1 30.1 92 -2.3 27.9
23:50 1017 30.03 846 24.98 -1.3 29.6 92 -2.4 27.7
23:55 1017 30.03 846 24.98 -1.4 29.5 92 -2.5 27.4
24:00 1017 30.03 846 24.98 -1.4 29.5 92 -2.6 27.3